Terminal Aerodrome Forecast
Issued by NWS

Current Version | Previous Version | Text Only | Print | Product List | Glossary On
Versions: 1 2 3 4 5 6 7 8 9 10 11 12 13 14 15 16 17 18 19 20 21 22 23 24 25 26 27 28 29 30 31 32
000
FTUS41 KOKX 201123
TAFHPN
TAF
KHPN 201123Z 2012/2112 35015G22KT P6SM BKN035
      TEMPO 2012/2014 35010KT BKN025
     FM201700 34014G21KT P6SM BKN035
     FM210200 35009KT P6SM SCT035 OVC250
      AMD NOT SKED=

USA.gov is the U.S. government's official web portal to all federal, state and local government web resources and services.